sensor_id;sensor_type;location;lat;lon;timestamp;pressure;altitude;pressure_sealevel;temperature;humidity
56630;BME280;42502;40.732;-74.254;2022-07-29T00:01:16;99917.44;;;34.76;38.66
56630;BME280;42502;40.732;-74.254;2022-07-29T00:03:17;99912.53;;;34.76;38.64
56630;BME280;42502;40.732;-74.254;2022-07-29T00:05:17;99906.78;;;34.76;38.73
56630;BME280;42502;40.732;-74.254;2022-07-29T00:07:18;99916.19;;;34.77;38.21
56630;BME280;42502;40.732;-74.254;2022-07-29T00:09:19;99885.88;;;34.76;38.35
56630;BME280;42502;40.732;-74.254;2022-07-29T00:11:20;99881.53;;;34.71;38.26
56630;BME280;42502;40.732;-74.254;2022-07-29T00:13:21;99894.16;;;34.74;38.27
56630;BME280;42502;40.732;-74.254;2022-07-29T00:15:22;99894.50;;;34.76;38.46
56630;BME280;42502;40.732;-74.254;2022-07-29T00:17:23;99910.44;;;34.77;38.35
56630;BME280;42502;40.732;-74.254;2022-07-29T00:19:27;99908.84;;;34.76;38.38
56630;BME280;42502;40.732;-74.254;2022-07-29T00:21:28;99906.44;;;34.74;38.16
56630;BME280;42502;40.732;-74.254;2022-07-29T00:23:29;99901.50;;;34.75;38.18
56630;BME280;42502;40.732;-74.254;2022-07-29T00:25:30;99899.41;;;34.75;38.51
56630;BME280;42502;40.732;-74.254;2022-07-29T00:27:31;99905.53;;;34.77;38.46
56630;BME280;42502;40.732;-74.254;2022-07-29T00:29:32;99903.91;;;34.76;38.26
56630;BME280;42502;40.732;-74.254;2022-07-29T00:31:33;99903.91;;;34.76;38.57
56630;BME280;42502;40.732;-74.254;2022-07-29T00:33:33;99902.28;;;34.75;38.29
56630;BME280;42502;40.732;-74.254;2022-07-29T00:35:34;99894.63;;;34.72;38.35
56630;BME280;42502;40.732;-74.254;2022-07-29T00:37:44;99917.09;;;34.74;38.17
56630;BME280;42502;40.732;-74.254;2022-07-29T00:39:45;99924.44;;;34.75;38.34
56630;BME280;42502;40.732;-74.254;2022-07-29T00:41:45;99932.72;;;34.73;38.05
56630;BME280;42502;40.732;-74.254;2022-07-29T00:43:47;99941.34;;;34.73;38.40
56630;BME280;42502;40.732;-74.254;2022-07-29T00:45:50;99948.34;;;34.72;38.36
56630;BME280;42502;40.732;-74.254;2022-07-29T00:47:51;99956.00;;;34.75;38.00
56630;BME280;42502;40.732;-74.254;2022-07-29T00:49:52;99950.84;;;34.69;37.96
56630;BME280;42502;40.732;-74.254;2022-07-29T00:51:53;99967.59;;;34.71;37.99
56630;BME280;42502;40.732;-74.254;2022-07-29T00:53:54;99971.59;;;34.74;38.25
56630;BME280;42502;40.732;-74.254;2022-07-29T00:55:55;99974.63;;;34.70;38.21
56630;BME280;42502;40.732;-74.254;2022-07-29T00:57:58;99972.53;;;34.70;37.77
56630;BME280;42502;40.732;-74.254;2022-07-29T00:59:59;99965.53;;;34.72;37.75
56630;BME280;42502;40.732;-74.254;2022-07-29T01:02:00;99971.41;;;34.68;37.81
56630;BME280;42502;40.732;-74.254;2022-07-29T01:04:01;99979.06;;;34.71;37.80
56630;BME280;42502;40.732;-74.254;2022-07-29T01:06:02;99979.53;;;34.69;38.27
56630;BME280;42502;40.732;-74.254;2022-07-29T01:08:03;99977.50;;;34.70;38.09
56630;BME280;42502;40.732;-74.254;2022-07-29T01:10:04;99986.88;;;34.70;38.18
56630;BME280;42502;40.732;-74.254;2022-07-29T01:12:07;99985.28;;;34.69;38.12
56630;BME280;42502;40.732;-74.254;2022-07-29T01:14:08;99991.81;;;34.70;37.68
56630;BME280;42502;40.732;-74.254;2022-07-29T01:16:32;99983.81;;;34.65;38.17
56630;BME280;42502;40.732;-74.254;2022-07-29T01:18:34;99995.97;;;34.69;38.21
56630;BME280;42502;40.732;-74.254;2022-07-29T01:29:38;100002.94;;;34.68;37.72
56630;BME280;42502;40.732;-74.254;2022-07-29T01:31:56;99998.97;;;34.65;37.95
56630;BME280;42502;40.732;-74.254;2022-07-29T01:34:03;100007.22;;;34.63;38.33
56630;BME280;42502;40.732;-74.254;2022-07-29T01:36:11;100021.91;;;34.65;37.62
56630;BME280;42502;40.732;-74.254;2022-07-29T01:38:20;100020.31;;;34.64;37.79
56630;BME280;42502;40.732;-74.254;2022-07-29T01:40:27;100022.41;;;34.64;38.09
56630;BME280;42502;40.732;-74.254;2022-07-29T01:42:45;100034.66;;;34.64;38.20
56630;BME280;42502;40.732;-74.254;2022-07-29T01:47:10;100028.59;;;34.62;37.83
56630;BME280;42502;40.732;-74.254;2022-07-29T01:49:16;100036.38;;;34.62;37.89
56630;BME280;42502;40.732;-74.254;2022-07-29T01:51:31;100041.34;;;34.61;38.29
56630;BME280;42502;40.732;-74.254;2022-07-29T01:53:46;100033.66;;;34.58;38.13
56630;BME280;42502;40.732;-74.254;2022-07-29T01:55:48;100026.00;;;34.55;37.93
56630;BME280;42502;40.732;-74.254;2022-07-29T01:57:51;100044.66;;;34.60;38.18
56630;BME280;42502;40.732;-74.254;2022-07-29T01:59:52;100055.81;;;34.58;38.08
56630;BME280;42502;40.732;-74.254;2022-07-29T02:01:57;100063.13;;;34.59;37.68
56630;BME280;42502;40.732;-74.254;2022-07-29T02:04:02;100068.53;;;34.57;37.81
56630;BME280;42502;40.732;-74.254;2022-07-29T02:06:04;100067.75;;;34.56;38.07
56630;BME280;42502;40.732;-74.254;2022-07-29T02:08:07;100063.75;;;34.53;37.63
56630;BME280;42502;40.732;-74.254;2022-07-29T02:10:11;100077.16;;;34.57;38.07
56630;BME280;42502;40.732;-74.254;2022-07-29T02:12:13;100069.00;;;34.55;38.09
56630;BME280;42502;40.732;-74.254;2022-07-29T02:14:17;100071.88;;;34.55;37.71
56630;BME280;42502;40.732;-74.254;2022-07-29T02:16:20;100072.66;;;34.56;37.95
56630;BME280;42502;40.732;-74.254;2022-07-29T02:18:23;100066.16;;;34.55;37.82
56630;BME280;42502;40.732;-74.254;2022-07-29T02:20:27;100066.94;;;34.56;37.72
56630;BME280;42502;40.732;-74.254;2022-07-29T02:22:31;100034.34;;;34.40;37.76
56630;BME280;42502;40.732;-74.254;2022-07-29T02:24:35;100058.00;;;34.53;38.15
56630;BME280;42502;40.732;-74.254;2022-07-29T02:26:41;100049.09;;;34.51;38.08
56630;BME280;42502;40.732;-74.254;2022-07-29T02:28:44;100062.50;;;34.55;37.78
56630;BME280;42502;40.732;-74.254;2022-07-29T02:30:46;100054.81;;;34.51;37.79
56630;BME280;42502;40.732;-74.254;2022-07-29T02:32:49;100054.00;;;34.51;37.71
56630;BME280;42502;40.732;-74.254;2022-07-29T02:34:51;100054.00;;;34.51;38.02
56630;BME280;42502;40.732;-74.254;2022-07-29T02:36:54;100049.09;;;34.51;37.76
56630;BME280;42502;40.732;-74.254;2022-07-29T02:38:56;100056.09;;;34.50;38.15
56630;BME280;42502;40.732;-74.254;2022-07-29T02:41:08;100057.34;;;34.49;38.14
56630;BME280;42502;40.732;-74.254;2022-07-29T02:43:11;100046.34;;;34.48;37.99
56630;BME280;42502;40.732;-74.254;2022-07-29T02:45:13;100053.69;;;34.49;38.01
56630;BME280;42502;40.732;-74.254;2022-07-29T02:51:37;100057.81;;;34.48;37.75
56630;BME280;42502;40.732;-74.254;2022-07-29T02:53:42;100055.75;;;34.48;38.02
56630;BME280;42502;40.732;-74.254;2022-07-29T02:55:57;100062.75;;;34.47;37.90
56630;BME280;42502;40.732;-74.254;2022-07-29T02:58:15;100063.53;;;34.48;37.86
56630;BME280;42502;40.732;-74.254;2022-07-29T03:00:20;100068.16;;;34.45;37.96
56630;BME280;42502;40.732;-74.254;2022-07-29T03:02:22;100073.91;;;34.45;37.69
56630;BME280;42502;40.732;-74.254;2022-07-29T03:04:24;100071.81;;;34.46;37.96
56630;BME280;42502;40.732;-74.254;2022-07-29T03:06:26;100064.47;;;34.45;38.09
56630;BME280;42502;40.732;-74.254;2022-07-29T03:08:31;100066.56;;;34.44;38.06
56630;BME280;42502;40.732;-74.254;2022-07-29T03:10:33;100064.94;;;34.43;38.03
56630;BME280;42502;40.732;-74.254;2022-07-29T03:12:35;100070.69;;;34.43;37.71
56630;BME280;42502;40.732;-74.254;2022-07-29T03:14:36;100053.94;;;34.42;37.70
56630;BME280;42502;40.732;-74.254;2022-07-29T03:16:38;100057.63;;;34.42;37.80
56630;BME280;42502;40.732;-74.254;2022-07-29T03:18:40;100061.75;;;34.41;37.87
56630;BME280;42502;40.732;-74.254;2022-07-29T03:20:41;100058.88;;;34.41;37.99
56630;BME280;42502;40.732;-74.254;2022-07-29T03:22:43;100045.81;;;34.40;37.57
56630;BME280;42502;40.732;-74.254;2022-07-29T03:24:47;100056.03;;;34.41;37.56
56630;BME280;42502;40.732;-74.254;2022-07-29T03:26:47;100048.66;;;34.40;37.43
56630;BME280;42502;40.732;-74.254;2022-07-29T03:28:48;100048.34;;;34.38;37.71
56630;BME280;42502;40.732;-74.254;2022-07-29T03:30:49;100050.88;;;34.36;37.54
56630;BME280;42502;40.732;-74.254;2022-07-29T03:32:51;100061.41;;;34.39;37.58
56630;BME280;42502;40.732;-74.254;2022-07-29T03:34:52;100059.81;;;34.38;37.77
56630;BME280;42502;40.732;-74.254;2022-07-29T03:36:53;100070.94;;;34.36;37.79
56630;BME280;42502;40.732;-74.254;2022-07-29T03:38:54;100057.06;;;34.34;37.60
56630;BME280;42502;40.732;-74.254;2022-07-29T03:41:00;100063.63;;;34.35;37.74
56630;BME280;42502;40.732;-74.254;2022-07-29T03:43:03;100056.59;;;34.36;37.90
56630;BME280;42502;40.732;-74.254;2022-07-29T03:45:08;100070.16;;;34.35;37.61
56630;BME280;42502;40.732;-74.254;2022-07-29T03:47:11;100070.16;;;34.35;37.46
56630;BME280;42502;40.732;-74.254;2022-07-29T03:49:14;100062.00;;;34.34;37.85
56630;BME280;42502;40.732;-74.254;2022-07-29T03:51:17;100068.53;;;34.34;37.42
56630;BME280;42502;40.732;-74.254;2022-07-29T03:53:18;100067.75;;;34.34;37.83
56630;BME280;42502;40.732;-74.254;2022-07-29T03:55:19;100055.28;;;34.28;37.36
56630;BME280;42502;40.732;-74.254;2022-07-29T03:57:27;100065.34;;;34.32;37.91
56630;BME280;42502;40.732;-74.254;2022-07-29T03:59:30;100073.16;;;34.32;37.64
56630;BME280;42502;40.732;-74.254;2022-07-29T04:01:35;100069.94;;;34.30;37.56
56630;BME280;42502;40.732;-74.254;2022-07-29T04:03:36;100080.94;;;34.31;37.55
56630;BME280;42502;40.732;-74.254;2022-07-29T04:05:37;100077.88;;;34.26;37.57
56630;BME280;42502;40.732;-74.254;2022-07-29T04:07:38;100079.47;;;34.27;37.27
56630;BME280;42502;40.732;-74.254;2022-07-29T04:09:39;100087.13;;;34.30;37.60
56630;BME280;42502;40.732;-74.254;2022-07-29T04:11:41;100086.81;;;34.28;37.77
56630;BME280;42502;40.732;-74.254;2022-07-29T04:13:44;100088.41;;;34.29;37.46
56630;BME280;42502;40.732;-74.254;2022-07-29T04:15:45;100084.88;;;34.25;37.66
56630;BME280;42502;40.732;-74.254;2022-07-29T04:17:46;100086.47;;;34.26;37.46
56630;BME280;42502;40.732;-74.254;2022-07-29T04:19:47;100092.22;;;34.26;37.53
56630;BME280;42502;40.732;-74.254;2022-07-29T04:21:47;100100.81;;;34.26;37.52
56630;BME280;42502;40.732;-74.254;2022-07-29T04:23:48;100085.31;;;34.23;37.55
56630;BME280;42502;40.732;-74.254;2022-07-29T04:25:52;100082.91;;;34.22;37.40
56630;BME280;42502;40.732;-74.254;2022-07-29T04:27:53;100103.28;;;34.24;37.47
56630;BME280;42502;40.732;-74.254;2022-07-29T04:30:03;100098.03;;;34.22;37.49
56630;BME280;42502;40.732;-74.254;2022-07-29T04:32:04;100098.50;;;34.21;37.55
56630;BME280;42502;40.732;-74.254;2022-07-29T04:34:06;100100.09;;;34.22;37.79
56630;BME280;42502;40.732;-74.254;2022-07-29T04:36:07;100096.91;;;34.20;37.34
56630;BME280;42502;40.732;-74.254;2022-07-29T04:38:07;100097.25;;;34.22;37.11
56630;BME280;42502;40.732;-74.254;2022-07-29T04:40:09;100103.91;;;34.18;37.43
56630;BME280;42502;40.732;-74.254;2022-07-29T04:42:09;100096.09;;;34.19;37.52
56630;BME280;42502;40.732;-74.254;2022-07-29T04:44:10;100101.81;;;34.19;37.63
56630;BME280;42502;40.732;-74.254;2022-07-29T04:46:11;100103.91;;;34.18;37.36
56630;BME280;42502;40.732;-74.254;2022-07-29T04:48:12;100096.22;;;34.15;37.19
56630;BME280;42502;40.732;-74.254;2022-07-29T04:50:13;100093.38;;;34.15;37.30
56630;BME280;42502;40.732;-74.254;2022-07-29T04:52:14;100097.84;;;34.16;37.38
56630;BME280;42502;40.732;-74.254;2022-07-29T04:54:15;100099.09;;;34.15;37.37
56630;BME280;42502;40.732;-74.254;2022-07-29T04:56:15;100106.09;;;34.14;37.30
56630;BME280;42502;40.732;-74.254;2022-07-29T04:58:16;100103.69;;;34.13;37.58
56630;BME280;42502;40.732;-74.254;2022-07-29T05:00:17;100101.28;;;34.11;37.23
56630;BME280;42502;40.732;-74.254;2022-07-29T05:02:18;100108.63;;;34.12;37.43
56630;BME280;42502;40.732;-74.254;2022-07-29T05:04:19;100093.50;;;34.12;37.15
56630;BME280;42502;40.732;-74.254;2022-07-29T05:06:20;100095.53;;;34.11;37.59
56630;BME280;42502;40.732;-74.254;2022-07-29T05:08:20;100094.41;;;34.09;37.32
56630;BME280;42502;40.732;-74.254;2022-07-29T05:10:22;100099.00;;;34.06;37.48
56630;BME280;42502;40.732;-74.254;2022-07-29T05:12:24;100108.72;;;34.09;37.09
56630;BME280;42502;40.732;-74.254;2022-07-29T05:14:25;100113.66;;;34.08;37.15
56630;BME280;42502;40.732;-74.254;2022-07-29T05:16:26;100118.63;;;34.08;37.08
56630;BME280;42502;40.732;-74.254;2022-07-29T05:18:27;100104.84;;;34.03;37.13
56630;BME280;42502;40.732;-74.254;2022-07-29T05:20:28;100109.34;;;34.04;37.08
56630;BME280;42502;40.732;-74.254;2022-07-29T05:22:29;100115.84;;;34.04;37.23
56630;BME280;42502;40.732;-74.254;2022-07-29T05:24:30;100105.69;;;34.03;37.50
56630;BME280;42502;40.732;-74.254;2022-07-29T05:26:31;100115.84;;;34.04;37.72
56630;BME280;42502;40.732;-74.254;2022-07-29T05:28:35;100118.38;;;34.02;37.23
56630;BME280;42502;40.732;-74.254;2022-07-29T05:30:36;100124.91;;;34.03;37.06
56630;BME280;42502;40.732;-74.254;2022-07-29T05:32:36;100121.25;;;34.02;37.02
56630;BME280;42502;40.732;-74.254;2022-07-29T05:34:37;100126.97;;;34.02;37.07
56630;BME280;42502;40.732;-74.254;2022-07-29T05:36:38;100118.06;;;34.00;37.40
56630;BME280;42502;40.732;-74.254;2022-07-29T05:38:39;100114.50;;;33.96;37.27
56630;BME280;42502;40.732;-74.254;2022-07-29T05:40:40;100124.25;;;33.98;37.40
56630;BME280;42502;40.732;-74.254;2022-07-29T05:42:41;100121.38;;;33.98;37.19
56630;BME280;42502;40.732;-74.254;2022-07-29T05:44:42;100115.75;;;33.95;37.34
56630;BME280;42502;40.732;-74.254;2022-07-29T05:46:42;100125.19;;;33.95;37.30
56630;BME280;42502;40.732;-74.254;2022-07-29T05:48:43;100120.69;;;33.94;37.28
56630;BME280;42502;40.732;-74.254;2022-07-29T05:50:44;100117.84;;;33.94;37.53
56630;BME280;42502;40.732;-74.254;2022-07-29T05:52:45;100113.50;;;33.90;37.22
56630;BME280;42502;40.732;-74.254;2022-07-29T05:54:46;100118.31;;;33.93;37.35
56630;BME280;42502;40.732;-74.254;2022-07-29T05:56:47;100102.81;;;33.90;37.22
56630;BME280;42502;40.732;-74.254;2022-07-29T05:58:47;100118.31;;;33.93;37.27
56630;BME280;42502;40.732;-74.254;2022-07-29T06:00:48;100113.03;;;33.91;37.01
56630;BME280;42502;40.732;-74.254;2022-07-29T06:02:49;100112.25;;;33.91;37.27
56630;BME280;42502;40.732;-74.254;2022-07-29T06:04:50;100113.50;;;33.90;37.09
56630;BME280;42502;40.732;-74.254;2022-07-29T06:06:51;100116.81;;;33.88;37.30
56630;BME280;42502;40.732;-74.254;2022-07-29T06:08:52;100116.50;;;33.86;37.24
56630;BME280;42502;40.732;-74.254;2022-07-29T06:10:53;100121.75;;;33.88;37.29
56630;BME280;42502;40.732;-74.254;2022-07-29T06:12:56;100109.63;;;33.84;37.50
56630;BME280;42502;40.732;-74.254;2022-07-29T06:14:57;100113.72;;;33.82;37.46
56630;BME280;42502;40.732;-74.254;2022-07-29T06:16:58;100116.25;;;33.80;37.42
56630;BME280;42502;40.732;-74.254;2022-07-29T06:18:59;100112.81;;;33.86;37.61
56630;BME280;42502;40.732;-74.254;2022-07-29T06:21:00;100116.94;;;33.85;37.21
56630;BME280;42502;40.732;-74.254;2022-07-29T06:23:00;100103.09;;;33.83;37.67
56630;BME280;42502;40.732;-74.254;2022-07-29T06:25:02;100099.88;;;33.81;36.98
56630;BME280;42502;40.732;-74.254;2022-07-29T06:27:03;100101.47;;;33.82;37.03
56630;BME280;42502;40.732;-74.254;2022-07-29T06:29:07;100111.31;;;33.81;37.35
56630;BME280;42502;40.732;-74.254;2022-07-29T06:31:09;100109.75;;;33.80;37.52
56630;BME280;42502;40.732;-74.254;2022-07-29T06:33:16;100117.50;;;33.79;37.38
56630;BME280;42502;40.732;-74.254;2022-07-29T06:35:17;100113.41;;;33.80;37.54
56630;BME280;42502;40.732;-74.254;2022-07-29T06:37:17;100114.78;;;33.76;37.42
56630;BME280;42502;40.732;-74.254;2022-07-29T06:39:18;100120.06;;;33.77;37.48
56630;BME280;42502;40.732;-74.254;2022-07-29T06:41:19;100114.78;;;33.76;37.46
56630;BME280;42502;40.732;-74.254;2022-07-29T06:43:20;100122.56;;;33.75;37.32
56630;BME280;42502;40.732;-74.254;2022-07-29T06:45:24;100127.81;;;33.77;37.13
56630;BME280;42502;40.732;-74.254;2022-07-29T06:47:24;100129.91;;;33.76;37.37
56630;BME280;42502;40.732;-74.254;2022-07-29T06:49:25;100128.75;;;33.74;37.38
56630;BME280;42502;40.732;-74.254;2022-07-29T06:51:28;100121.44;;;33.73;37.18
56630;BME280;42502;40.732;-74.254;2022-07-29T06:53:29;100133.69;;;33.73;37.33
56630;BME280;42502;40.732;-74.254;2022-07-29T06:55:30;100132.88;;;33.73;37.10
56630;BME280;42502;40.732;-74.254;2022-07-29T06:57:31;100134.13;;;33.72;37.33
56630;BME280;42502;40.732;-74.254;2022-07-29T06:59:32;100134.13;;;33.72;37.48
56630;BME280;42502;40.732;-74.254;2022-07-29T07:01:33;100133.31;;;33.71;37.37
56630;BME280;42502;40.732;-74.254;2022-07-29T07:03:34;100128.97;;;33.67;37.22
56630;BME280;42502;40.732;-74.254;2022-07-29T07:05:34;100134.25;;;33.68;37.51
56630;BME280;42502;40.732;-74.254;2022-07-29T07:07:35;100133.09;;;33.65;37.41
56630;BME280;42502;40.732;-74.254;2022-07-29T07:09:36;100129.06;;;33.63;37.58
56630;BME280;42502;40.732;-74.254;2022-07-29T07:11:37;100130.69;;;33.64;37.58
56630;BME280;42502;40.732;-74.254;2022-07-29T07:13:37;100129.06;;;33.63;37.47
56630;BME280;42502;40.732;-74.254;2022-07-29T07:15:38;100121.75;;;33.62;37.27
56630;BME280;42502;40.732;-74.254;2022-07-29T07:17:39;100140.06;;;33.64;37.71
56630;BME280;42502;40.732;-74.254;2022-07-29T07:19:40;100135.16;;;33.65;37.05
56630;BME280;42502;40.732;-74.254;2022-07-29T07:21:41;100141.34;;;33.63;37.35
56630;BME280;42502;40.732;-74.254;2022-07-29T07:23:41;100134.94;;;33.59;37.33
56630;BME280;42502;40.732;-74.254;2022-07-29T07:25:42;100131.94;;;33.63;37.31
56630;BME280;42502;40.732;-74.254;2022-07-29T07:27:44;100133.69;;;33.60;37.61
56630;BME280;42502;40.732;-74.254;2022-07-29T07:29:45;100141.44;;;33.60;37.49
56630;BME280;42502;40.732;-74.254;2022-07-29T07:31:46;100148.78;;;33.61;36.98
56630;BME280;42502;40.732;-74.254;2022-07-29T07:33:47;100144.31;;;33.60;37.32
56630;BME280;42502;40.732;-74.254;2022-07-29T07:35:48;100144.91;;;33.55;37.34
56630;BME280;42502;40.732;-74.254;2022-07-29T07:37:48;100149.72;;;33.58;37.63
56630;BME280;42502;40.732;-74.254;2022-07-29T07:39:49;100140.41;;;33.54;37.32
56630;BME280;42502;40.732;-74.254;2022-07-29T07:41:50;100153.81;;;33.57;37.55
56630;BME280;42502;40.732;-74.254;2022-07-29T07:43:51;100147.31;;;33.56;37.31
56630;BME280;42502;40.732;-74.254;2022-07-29T07:45:52;100144.09;;;33.54;37.25
56630;BME280;42502;40.732;-74.254;2022-07-29T07:47:53;100144.91;;;33.55;37.22
56630;BME280;42502;40.732;-74.254;2022-07-29T07:49:59;100147.06;;;33.51;37.11
56630;BME280;42502;40.732;-74.254;2022-07-29T07:52:00;100149.84;;;33.54;37.11
56630;BME280;42502;40.732;-74.254;2022-07-29T07:54:01;100146.16;;;33.54;37.38
56630;BME280;42502;40.732;-74.254;2022-07-29T07:56:02;100154.41;;;33.52;37.38
56630;BME280;42502;40.732;-74.254;2022-07-29T07:58:04;100163.78;;;33.52;37.20
56630;BME280;42502;40.732;-74.254;2022-07-29T08:00:06;100166.78;;;33.49;37.27
56630;BME280;42502;40.732;-74.254;2022-07-29T08:02:07;100175.69;;;33.51;37.46
56630;BME280;42502;40.732;-74.254;2022-07-29T08:04:08;100172.84;;;33.51;37.20
56630;BME280;42502;40.732;-74.254;2022-07-29T08:06:09;100177.78;;;33.50;37.09
56630;BME280;42502;40.732;-74.254;2022-07-29T08:08:10;100175.38;;;33.49;37.18
56630;BME280;42502;40.732;-74.254;2022-07-29T08:10:11;100172.50;;;33.49;37.30
56630;BME280;42502;40.732;-74.254;2022-07-29T08:12:12;100179.47;;;33.47;37.15
56630;BME280;42502;40.732;-74.254;2022-07-29T08:14:13;100182.78;;;33.46;37.24
56630;BME280;42502;40.732;-74.254;2022-07-29T08:16:14;100189.31;;;33.46;37.50
56630;BME280;42502;40.732;-74.254;2022-07-29T08:18:15;100193.47;;;33.45;37.29
56630;BME280;42502;40.732;-74.254;2022-07-29T08:20:16;100194.38;;;33.42;37.27
56630;BME280;42502;40.732;-74.254;2022-07-29T08:22:17;100187.16;;;33.38;37.32
56630;BME280;42502;40.732;-74.254;2022-07-29T08:24:18;100195.16;;;33.43;37.07
56630;BME280;42502;40.732;-74.254;2022-07-29T08:26:37;100194.38;;;33.42;37.14
56630;BME280;42502;40.732;-74.254;2022-07-29T08:28:39;100193.56;;;33.42;37.66
56630;BME280;42502;40.732;-74.254;2022-07-29T08:30:40;100189.56;;;33.39;37.52
56630;BME280;42502;40.732;-74.254;2022-07-29T08:32:41;100196.88;;;33.40;37.19
56630;BME280;42502;40.732;-74.254;2022-07-29T08:34:42;100195.28;;;33.39;37.55
56630;BME280;42502;40.732;-74.254;2022-07-29T08:36:44;100186.44;;;33.34;37.28
56630;BME280;42502;40.732;-74.254;2022-07-29T08:38:45;100199.41;;;33.38;37.25
56630;BME280;42502;40.732;-74.254;2022-07-29T08:40:47;100182.78;;;33.33;37.37
56630;BME280;42502;40.732;-74.254;2022-07-29T08:42:47;100195.38;;;33.36;37.27
56630;BME280;42502;40.732;-74.254;2022-07-29T08:44:49;100193.88;;;33.31;37.35
56630;BME280;42502;40.732;-74.254;2022-07-29T08:46:50;100192.19;;;33.34;37.55
56630;BME280;42502;40.732;-74.254;2022-07-29T08:48:51;100186.91;;;33.32;37.53
56630;BME280;42502;40.732;-74.254;2022-07-29T08:50:54;100193.88;;;33.31;37.21
56630;BME280;42502;40.732;-74.254;2022-07-29T08:52:56;100201.22;;;33.32;36.97
56630;BME280;42502;40.732;-74.254;2022-07-29T08:54:57;100195.50;;;33.32;37.13
56630;BME280;42502;40.732;-74.254;2022-07-29T08:56:59;100195.16;;;33.30;37.17
56630;BME280;42502;40.732;-74.254;2022-07-29T08:59:03;100202.13;;;33.29;37.66
56630;BME280;42502;40.732;-74.254;2022-07-29T09:01:06;100200.50;;;33.28;37.50
56630;BME280;42502;40.732;-74.254;2022-07-29T09:03:08;100204.19;;;33.28;37.50
56630;BME280;42502;40.732;-74.254;2022-07-29T09:05:10;100202.59;;;33.27;37.04
56630;BME280;42502;40.732;-74.254;2022-07-29T09:07:14;100201.44;;;33.25;37.49
56630;BME280;42502;40.732;-74.254;2022-07-29T09:09:16;100206.69;;;33.26;37.52
56630;BME280;42502;40.732;-74.254;2022-07-29T09:11:17;100204.75;;;33.23;37.16
56630;BME280;42502;40.732;-74.254;2022-07-29T09:13:18;100207.97;;;33.25;37.22
56630;BME280;42502;40.732;-74.254;2022-07-29T09:15:20;100215.84;;;33.21;37.55
56630;BME280;42502;40.732;-74.254;2022-07-29T09:17:42;100219.59;;;33.18;37.14
56630;BME280;42502;40.732;-74.254;2022-07-29T09:19:47;100230.50;;;33.23;37.46
56630;BME280;42502;40.732;-74.254;2022-07-29T09:21:51;100224.44;;;33.21;36.93
56630;BME280;42502;40.732;-74.254;2022-07-29T09:24:09;100222.03;;;33.20;37.04
56630;BME280;42502;40.732;-74.254;2022-07-29T09:26:12;100230.97;;;33.22;37.01
56630;BME280;42502;40.732;-74.254;2022-07-29T09:28:16;100232.25;;;33.21;37.04
56630;BME280;42502;40.732;-74.254;2022-07-29T09:30:17;100225.41;;;33.15;37.41
56630;BME280;42502;40.732;-74.254;2022-07-29T09:32:18;100239.63;;;33.18;37.17
56630;BME280;42502;40.732;-74.254;2022-07-29T09:34:26;100237.69;;;33.15;37.35
56630;BME280;42502;40.732;-74.254;2022-07-29T09:36:28;100227.47;;;33.14;37.43
56630;BME280;42502;40.732;-74.254;2022-07-29T09:38:30;100230.44;;;33.10;37.18
56630;BME280;42502;40.732;-74.254;2022-07-29T09:40:31;100244.66;;;33.14;37.36
56630;BME280;42502;40.732;-74.254;2022-07-29T09:42:32;100246.72;;;33.14;37.06
56630;BME280;42502;40.732;-74.254;2022-07-29T09:44:47;100257.78;;;33.11;37.14
56630;BME280;42502;40.732;-74.254;2022-07-29T09:46:59;100250.03;;;33.12;37.48
56630;BME280;42502;40.732;-74.254;2022-07-29T09:49:11;100252.06;;;33.11;37.59
56630;BME280;42502;40.732;-74.254;2022-07-29T09:51:19;100261.94;;;33.10;37.24
56630;BME280;42502;40.732;-74.254;2022-07-29T09:53:35;100250.13;;;33.08;37.16
56630;BME280;42502;40.732;-74.254;2022-07-29T09:55:49;100264.44;;;33.08;37.44
56630;BME280;42502;40.732;-74.254;2022-07-29T09:57:51;100265.25;;;33.09;37.54
56630;BME280;42502;40.732;-74.254;2022-07-29T10:00:06;100263.28;;;33.06;37.30
56630;BME280;42502;40.732;-74.254;2022-07-29T10:02:11;100269.81;;;33.06;37.22
56630;BME280;42502;40.732;-74.254;2022-07-29T10:04:12;100270.16;;;33.08;37.50
56630;BME280;42502;40.732;-74.254;2022-07-29T10:06:13;100272.22;;;33.08;37.40
56630;BME280;42502;40.732;-74.254;2022-07-29T10:08:25;100282.50;;;33.05;37.52
56630;BME280;42502;40.732;-74.254;2022-07-29T10:10:29;100286.25;;;33.02;36.94
56630;BME280;42502;40.732;-74.254;2022-07-29T10:12:30;100285.47;;;33.02;37.35
56630;BME280;42502;40.732;-74.254;2022-07-29T10:14:31;100284.75;;;32.98;37.31
56630;BME280;42502;40.732;-74.254;2022-07-29T10:16:36;100291.31;;;32.98;37.45
56630;BME280;42502;40.732;-74.254;2022-07-29T10:18:43;100299.44;;;33.00;36.96
56630;BME280;42502;40.732;-74.254;2022-07-29T10:20:44;100303.53;;;32.99;37.27
56630;BME280;42502;40.732;-74.254;2022-07-29T10:22:46;100300.34;;;32.97;37.33
56630;BME280;42502;40.732;-74.254;2022-07-29T10:24:47;100293.00;;;32.96;37.14
56630;BME280;42502;40.732;-74.254;2022-07-29T10:26:49;100284.53;;;32.92;37.13
56630;BME280;42502;40.732;-74.254;2022-07-29T10:28:50;100293.78;;;32.96;37.47
56630;BME280;42502;40.732;-74.254;2022-07-29T10:30:53;100283.25;;;32.93;37.35
56630;BME280;42502;40.732;-74.254;2022-07-29T10:40:22;100274.31;;;32.91;37.58
56630;BME280;42502;40.732;-74.254;2022-07-29T10:42:46;100277.53;;;32.93;37.27
56630;BME280;42502;40.732;-74.254;2022-07-29T10:44:47;100279.25;;;32.90;37.28
56630;BME280;42502;40.732;-74.254;2022-07-29T10:46:48;100274.31;;;32.91;37.49
56630;BME280;42502;40.732;-74.254;2022-07-29T10:49:14;100269.16;;;32.86;37.33